Terminal Aerodrome Forecast
Issued by NWS Rapid City, SD

Home | Current Version | Previous Version | Text Only | Print | Product List | Glossary Off
Versions: 1 2 3 4 5 6 7 8 9 10 11 12 13 14 15 16 17 18 19 20 21 22 23 24 25 26

676
FTUS43 KUNR 240430 AAA
TAFRAP
TAF AMD
KRAP 240430Z 2405/2424 31008KT P6SM BKN150
      TEMPO 2405/2407 P6SM -SHRA BKN040
     FM241500 33015G25KT P6SM BKN120=

USA.gov is the U.S. government's official web portal to all federal, state and local government web resources and services.